Time;durP1;ratioP1;P1;durP2;ratioP2;P2;SDS_P1;SDS_P2;PMS_P1;PMS_P2;Temp;Humidity;BMP_temperature;BMP_pressure;BME280_temperature;BME280_humidity;BME280_pressure;Samples;Min_cycle;Max_cycle;Signal;HPM_P1;HPM_P2
2021/01/26 00:01:47;;;;;;;9.07;6.43;;;;;;;0.00;100.00;151372.22;5094122;28;20516;-90
2021/01/26 00:04:22;;;;;;;9.33;6.40;;;;;;;0.03;100.00;151377.41;5101845;28;20435;-90
2021/01/26 00:06:58;;;;;;;9.63;6.63;;;;;;;-0.04;100.00;151361.97;5114442;28;20439;-89
2021/01/26 00:09:34;;;;;;;6.70;6.00;;;;;;;-0.01;100.00;151369.69;5098823;28;20437;-89
2021/01/26 00:12:11;;;;;;;7.30;5.93;;;;;;;-0.06;100.00;151356.88;5093467;28;20931;-89
2021/01/26 00:14:47;;;;;;;8.20;5.93;;;;;;;-0.09;100.00;151349.16;5093813;28;20468;-89
2021/01/26 00:17:22;;;;;;;9.60;6.10;;;;;;;-0.09;100.00;151349.16;5128736;27;20524;-90
2021/01/26 00:19:57;;;;;;;7.07;5.70;;;;;;;-0.06;100.00;151355.56;5077164;28;20804;-90
2021/01/26 00:22:33;;;;;;;7.67;5.90;;;;;;;-0.14;100.00;151335.03;5078136;28;20444;-89
2021/01/26 00:25:10;;;;;;;7.70;5.37;;;;;;;-0.19;100.00;151322.22;5073546;28;20520;-90
2021/01/26 00:27:46;;;;;;;8.43;6.20;;;;;;;-0.22;100.00;151315.81;5099312;28;20426;-89
2021/01/26 00:30:23;;;;;;;8.17;5.90;;;;;;;-0.28;100.00;151300.41;5113674;28;20802;-89
2021/01/26 00:32:59;;;;;;;10.67;6.47;;;;;;;-0.25;100.00;151308.09;5099260;28;20481;-89
2021/01/26 00:35:35;;;;;;;8.33;5.10;;;;;;;-0.25;100.00;151308.09;5093562;28;20995;-89
2021/01/26 00:38:11;;;;;;;8.00;5.50;;;;;;;-0.30;100.00;151295.28;5094232;28;20516;-89
2021/01/26 00:40:47;;;;;;;8.63;5.83;;;;;;;-0.30;100.00;151295.28;5092775;28;20474;-89
2021/01/26 00:43:22;;;;;;;10.00;6.43;;;;;;;-0.31;100.00;151292.69;5111555;27;20439;-89
2021/01/26 00:45:57;;;;;;;8.00;6.40;;;;;;;-0.29;100.00;151297.81;5094288;28;20444;-89
2021/01/26 00:48:32;;;;;;;7.70;6.30;;;;;;;-0.25;100.00;151308.09;5085740;28;20446;-89
2021/01/26 00:51:08;;;;;;;7.87;5.70;;;;;;;-0.30;100.00;151295.28;5057770;28;20437;-89
2021/01/26 00:53:45;;;;;;;6.50;5.37;;;;;;;-0.38;100.00;151274.75;5074143;28;20436;-89
2021/01/26 00:56:22;;;;;;;8.20;5.67;;;;;;;-0.46;100.00;151254.22;5090947;28;20519;-89
2021/01/26 00:58:58;;;;;;;8.50;6.20;;;;;;;-0.45;100.00;151255.50;5093760;28;20491;-90
2021/01/26 01:01:33;;;;;;;7.63;5.00;;;;;;;-0.45;100.00;151256.75;5077673;28;20804;-89
2021/01/26 01:04:09;;;;;;;8.50;5.70;;;;;;;-0.44;100.00;151259.34;5093199;28;20459;-89
2021/01/26 01:06:44;;;;;;;6.30;5.23;;;;;;;-0.51;100.00;151241.41;5108651;28;20448;-88
2021/01/26 01:09:20;;;;;;;7.73;5.83;;;;;;;-0.54;100.00;151233.69;5093166;28;20542;-89
2021/01/26 01:11:56;;;;;;;9.50;5.90;;;;;;;-0.50;100.00;151243.94;5093102;28;20522;-89
2021/01/26 01:14:31;;;;;;;8.50;6.47;;;;;;;-0.60;100.00;151218.28;5092956;28;20575;-89
2021/01/26 01:17:06;;;;;;;7.10;5.63;;;;;;;-0.61;100.00;151215.75;5092512;28;20441;-88
2021/01/26 01:19:41;;;;;;;8.47;6.03;;;;;;;-0.65;100.00;151205.47;5093758;28;20447;-89
2021/01/26 01:22:17;;;;;;;7.13;5.70;;;;;;;-0.68;100.00;151197.78;5094092;28;20425;-89
2021/01/26 01:24:53;;;;;;;8.53;6.47;;;;;;;-0.60;100.00;151218.28;5077119;28;20444;-88
2021/01/26 01:27:29;;;;;;;7.67;6.40;;;;;;;-0.53;100.00;151235.00;5097867;28;20433;-89
2021/01/26 01:30:06;;;;;;;8.10;6.20;;;;;;;-0.52;100.00;151238.81;5093131;28;20429;-88
2021/01/26 01:32:41;;;;;;;9.73;6.80;;;;;;;-0.52;100.00;151238.81;5093577;28;20487;-88
2021/01/26 01:35:18;;;;;;;7.70;6.00;;;;;;;-0.46;100.00;151252.94;5084583;28;20469;-87
2021/01/26 01:37:54;;;;;;;9.77;6.90;;;;;;;-0.48;100.00;151247.81;5134081;27;20452;-87
2021/01/26 01:40:35;;;;;;;8.40;6.23;;;;;;;-0.49;100.00;151246.53;5072451;28;20434;-87
2021/01/26 01:43:11;;;;;;;10.20;6.70;;;;;;;-0.55;100.00;151231.13;5081432;28;20541;-88
2021/01/26 01:45:46;;;;;;;7.13;5.80;;;;;;;-0.55;100.00;151231.13;5092970;28;20426;-88
2021/01/26 01:48:25;;;;;;;7.80;5.27;;;;;;;-0.51;100.00;151240.09;5097751;28;20472;-88
2021/01/26 01:51:03;;;;;;;9.07;5.77;;;;;;;-0.54;100.00;151232.41;5086905;28;20432;-88
2021/01/26 01:53:41;;;;;;;7.70;6.17;;;;;;;-0.56;100.00;151228.59;5070615;28;20491;-88
2021/01/26 01:56:21;;;;;;;9.80;6.33;;;;;;;-0.55;100.00;151229.81;5107451;28;20464;-88
2021/01/26 01:58:59;;;;;;;7.47;5.80;;;;;;;-0.57;100.00;151226.00;5076569;28;20451;-88
2021/01/26 02:01:35;;;;;;;10.33;6.20;;;;;;;-0.58;100.00;151223.41;5079194;28;20421;-88
2021/01/26 02:04:13;;;;;;;9.60;6.80;;;;;;;-0.59;100.00;151219.59;5109444;28;20443;-88
2021/01/26 02:06:53;;;;;;;9.03;6.20;;;;;;;-0.59;100.00;151219.59;5126191;28;20454;-88
2021/01/26 02:09:30;;;;;;;8.00;5.70;;;;;;;-0.53;100.00;151236.22;5092298;28;20539;-88
2021/01/26 02:12:08;;;;;;;8.13;5.40;;;;;;;-0.55;100.00;151231.13;5126292;28;20433;-88
2021/01/26 02:14:50;;;;;;;9.30;6.40;;;;;;;-0.49;100.00;151246.53;5074453;28;20478;-88
2021/01/26 02:17:38;;;;;;;8.37;6.53;;;;;;;-0.45;100.00;151256.75;5091398;28;20448;-88
2021/01/26 02:20:43;;;;;;;10.60;6.03;;;;;;;-0.45;100.00;151255.50;5096674;28;20468;-87
2021/01/26 02:23:50;;;;;;;8.07;5.90;;;;;;;-0.52;100.00;151238.81;5087664;28;20450;-87
2021/01/26 02:27:00;;;;;;;6.93;4.77;;;;;;;-0.48;100.00;151247.81;5091796;28;20429;-87
2021/01/26 02:30:10;;;;;;;6.83;5.03;;;;;;;-0.46;100.00;151254.22;5076686;28;20450;-88
2021/01/26 02:33:04;;;;;;;9.20;5.70;;;;;;;-0.53;100.00;151235.00;5074371;28;20559;-88
2021/01/26 02:36:07;;;;;;;8.10;6.03;;;;;;;-0.66;100.00;151202.88;5091841;28;20465;-87
2021/01/26 02:39:19;;;;;;;9.10;5.30;;;;;;;-0.59;100.00;151219.59;5071295;28;20453;-88
2021/01/26 02:42:08;;;;;;;6.83;4.97;;;;;;;-0.63;100.00;151210.59;5080425;28;20429;-87
2021/01/26 02:44:52;;;;;;;8.10;5.57;;;;;;;-0.61;100.00;151215.75;5089247;28;20488;-88
2021/01/26 02:47:39;;;;;;;8.57;5.37;;;;;;;-0.63;100.00;151211.88;5129638;27;20436;-88
2021/01/26 02:50:20;;;;;;;8.40;5.93;;;;;;;-0.55;100.00;151231.13;5095546;28;20844;-88
2021/01/26 02:53:06;;;;;;;9.50;5.93;;;;;;;-0.58;100.00;151222.16;5095000;28;20441;-87
2021/01/26 02:55:45;;;;;;;10.00;6.70;;;;;;;-0.66;100.00;151202.88;5079624;28;20470;-87
2021/01/26 02:58:26;;;;;;;9.27;6.50;;;;;;;-0.64;100.00;151208.06;5074505;28;20451;-87
2021/01/26 03:01:03;;;;;;;7.77;5.50;;;;;;;-0.68;100.00;151197.78;5088130;28;20437;-88
2021/01/26 03:03:42;;;;;;;8.60;5.40;;;;;;;-0.64;100.00;151208.06;5115046;28;20999;-88
2021/01/26 03:06:20;;;;;;;8.97;5.87;;;;;;;-0.64;100.00;151209.28;5093439;28;20434;-87
2021/01/26 03:09:01;;;;;;;10.43;6.93;;;;;;;-0.66;100.00;151202.88;5099782;28;20446;-87
2021/01/26 03:11:40;;;;;;;7.57;6.70;;;;;;;-0.70;100.00;151193.94;5112921;28;20442;-87
2021/01/26 03:14:19;;;;;;;8.57;5.80;;;;;;;-0.64;100.00;151209.28;5096271;28;20837;-87
2021/01/26 03:17:00;;;;;;;8.77;5.90;;;;;;;-0.60;100.00;151218.28;5094766;28;20943;-88
2021/01/26 03:19:37;;;;;;;8.80;5.60;;;;;;;-0.67;100.00;151201.66;5075874;28;20425;-87
2021/01/26 03:22:14;;;;;;;8.53;5.83;;;;;;;-0.65;100.00;151205.47;5116515;27;20480;-87
2021/01/26 03:24:52;;;;;;;10.77;6.80;;;;;;;-0.71;100.00;151190.06;5121014;27;20453;-88
2021/01/26 03:27:29;;;;;;;8.30;6.40;;;;;;;-0.70;100.00;151193.94;5111667;28;20441;-87
2021/01/26 03:30:08;;;;;;;6.37;5.73;;;;;;;-0.65;100.00;151205.47;5079433;28;20424;-88
2021/01/26 03:32:45;;;;;;;8.40;6.50;;;;;;;-0.71;100.00;151191.34;5076008;28;20476;-88
2021/01/26 03:35:21;;;;;;;8.20;6.10;;;;;;;-0.71;100.00;151191.34;5108476;28;20473;-88
2021/01/26 03:38:00;;;;;;;9.40;6.87;;;;;;;-0.72;100.00;151187.53;5072831;28;20436;-88
2021/01/26 03:40:35;;;;;;;9.77;6.90;;;;;;;-0.82;100.00;151163.16;5079320;28;20432;-88
2021/01/26 03:43:11;;;;;;;10.33;6.13;;;;;;;-0.75;100.00;151179.84;5069770;28;20963;-88
2021/01/26 03:45:50;;;;;;;9.70;7.20;;;;;;;-0.72;100.00;151187.53;5076053;28;20446;-88
2021/01/26 03:48:35;;;;;;;8.73;6.60;;;;;;;-0.77;100.00;151175.97;5125325;27;20726;-87
2021/01/26 03:51:16;;;;;;;9.87;6.53;;;;;;;-0.78;100.00;151173.44;5092969;28;20912;-88
2021/01/26 03:54:06;;;;;;;10.17;6.70;;;;;;;-0.80;100.00;151168.31;5094537;28;20441;-88
2021/01/26 03:57:14;;;;;;;9.90;6.83;;;;;;;-0.77;100.00;151174.72;5094050;28;20484;-88
2021/01/26 04:00:04;;;;;;;9.83;6.43;;;;;;;-0.77;100.00;151175.97;5093370;28;20437;-88
2021/01/26 04:02:57;;;;;;;9.00;7.03;;;;;;;-0.78;100.00;151172.13;5091431;28;20456;-88
2021/01/26 04:05:38;;;;;;;10.40;6.90;;;;;;;-0.84;100.00;151158.03;5077366;28;20450;-88
2021/01/26 04:08:16;;;;;;;10.93;6.97;;;;;;;-0.75;100.00;151179.84;5092449;28;20501;-88
2021/01/26 04:11:11;;;;;;;8.60;5.87;;;;;;;-0.82;100.00;151161.91;5093842;28;21010;-88
2021/01/26 04:13:55;;;;;;;9.43;6.50;;;;;;;-0.86;100.00;151151.63;5072689;28;20456;-88
2021/01/26 04:16:35;;;;;;;12.03;7.13;;;;;;;-0.83;100.00;151159.31;5077815;28;20472;-88
2021/01/26 04:19:17;;;;;;;12.77;7.80;;;;;;;-0.89;100.00;151143.91;5093982;28;20443;-88
2021/01/26 04:21:52;;;;;;;11.13;7.53;;;;;;;-0.90;100.00;151141.38;5096244;28;20868;-88
2021/01/26 04:24:31;;;;;;;11.77;7.40;;;;;;;-0.86;100.00;151151.63;5102887;28;20547;-89
2021/01/26 04:27:09;;;;;;;15.97;7.30;;;;;;;-0.95;100.00;151129.81;5084633;28;20435;-88
2021/01/26 04:29:45;;;;;;;10.23;6.87;;;;;;;-0.85;100.00;151155.44;5077768;28;20448;-88
2021/01/26 04:32:24;;;;;;;10.23;7.40;;;;;;;-0.80;100.00;151168.31;5093212;28;20471;-88
2021/01/26 04:35:00;;;;;;;10.50;7.80;;;;;;;-0.81;100.00;151164.44;5077756;28;20480;-88
2021/01/26 04:37:36;;;;;;;10.00;7.10;;;;;;;-0.77;100.00;151174.72;5093476;28;20523;-88
2021/01/26 04:40:12;;;;;;;11.00;6.80;;;;;;;-0.71;100.00;151191.34;5091049;28;20439;-88
2021/01/26 04:42:49;;;;;;;10.27;7.10;;;;;;;-0.69;100.00;151195.25;5103302;27;20464;-88
2021/01/26 04:45:32;;;;;;;10.20;6.77;;;;;;;-0.74;100.00;151182.38;5093124;28;20433;-88
2021/01/26 04:48:11;;;;;;;11.57;6.80;;;;;;;-0.64;100.00;151208.06;5092814;28;20533;-88
2021/01/26 04:50:52;;;;;;;8.90;6.53;;;;;;;-0.65;100.00;151206.75;5072850;28;20936;-88
2021/01/26 04:53:50;;;;;;;7.73;6.00;;;;;;;-0.65;100.00;151206.75;5090692;28;20530;-89
2021/01/26 04:56:30;;;;;;;10.03;6.97;;;;;;;-0.67;100.00;151200.34;5086711;28;20460;-88
2021/01/26 04:59:13;;;;;;;10.43;6.57;;;;;;;-0.66;100.00;151202.88;5087368;28;20453;-85
2021/01/26 05:02:10;;;;;;;9.77;6.87;;;;;;;-0.64;100.00;151208.06;5109989;27;20429;-86
2021/01/26 05:04:49;;;;;;;8.53;5.50;;;;;;;-0.61;100.00;151217.00;5057102;28;21123;-86
2021/01/26 05:07:29;;;;;;;10.47;5.87;;;;;;;-0.53;100.00;151236.22;5082079;28;20926;-86
2021/01/26 05:10:06;;;;;;;8.63;6.27;;;;;;;-0.54;100.00;151232.41;5076968;28;20448;-85
2021/01/26 05:12:46;;;;;;;10.50;6.27;;;;;;;-0.47;100.00;151251.63;5076754;28;20789;-86
2021/01/26 05:15:25;;;;;;;9.83;5.80;;;;;;;-0.44;100.00;151259.34;5077041;28;20475;-87
2021/01/26 05:18:05;;;;;;;9.07;5.80;;;;;;;-0.45;100.00;151256.75;5110458;27;20880;-86
2021/01/26 05:20:47;;;;;;;9.00;5.93;;;;;;;-0.46;100.00;151252.94;5076961;28;20465;-88
2021/01/26 05:23:27;;;;;;;14.40;6.07;;;;;;;-0.35;100.00;151281.16;5110465;28;20438;-89
2021/01/26 05:26:03;;;;;;;11.93;6.00;;;;;;;-0.42;100.00;151264.47;5102618;28;20437;-89
2021/01/26 05:28:42;;;;;;;8.47;6.03;;;;;;;-0.39;100.00;151270.88;5108005;28;20455;-89
2021/01/26 05:31:45;;;;;;;9.90;6.40;;;;;;;-0.45;100.00;151255.50;5092574;28;20432;-88
2021/01/26 05:34:20;;;;;;;8.67;6.03;;;;;;;-0.43;100.00;151260.63;5056773;28;20473;-89
2021/01/26 05:36:56;;;;;;;9.73;5.90;;;;;;;-0.42;100.00;151264.47;5070757;28;20435;-89
2021/01/26 05:39:36;;;;;;;9.93;5.17;;;;;;;-0.41;100.00;151265.75;5078353;28;20943;-88
2021/01/26 05:42:13;;;;;;;9.00;5.47;;;;;;;-0.38;100.00;151273.44;5092925;28;20809;-87
2021/01/26 05:44:52;;;;;;;9.27;6.13;;;;;;;-0.43;100.00;151261.94;5076893;28;20441;-87
2021/01/26 05:47:29;;;;;;;8.80;6.07;;;;;;;-0.43;100.00;151260.63;5126649;28;20436;-87
2021/01/26 05:50:07;;;;;;;11.37;6.17;;;;;;;-0.42;100.00;151264.47;5112263;28;20437;-87
2021/01/26 05:52:42;;;;;;;7.43;5.30;;;;;;;-0.40;100.00;151268.34;5080316;28;20443;-88
2021/01/26 05:55:26;;;;;;;9.33;6.07;;;;;;;-0.40;100.00;151269.63;5096757;28;20461;-88
2021/01/26 05:58:09;;;;;;;7.13;4.90;;;;;;;-0.42;100.00;151263.16;5096167;28;20445;-87
2021/01/26 06:00:44;;;;;;;7.60;4.43;;;;;;;-0.35;100.00;151282.44;5110551;28;20433;-88
2021/01/26 06:03:21;;;;;;;10.03;5.50;;;;;;;-0.37;100.00;151277.28;5076216;28;20536;-87
2021/01/26 06:06:02;;;;;;;6.87;5.50;;;;;;;-0.41;100.00;151265.75;5092139;28;20455;-89
2021/01/26 06:08:50;;;;;;;6.03;4.90;;;;;;;-0.34;100.00;151284.97;5126433;28;20476;-88
2021/01/26 06:11:30;;;;;;;5.73;4.60;;;;;;;-0.35;100.00;151282.44;5094992;28;20468;-88
2021/01/26 06:14:09;;;;;;;7.23;4.47;;;;;;;-0.39;100.00;151272.16;5095519;28;20433;-89
2021/01/26 06:16:44;;;;;;;6.57;4.90;;;;;;;-0.35;100.00;151282.44;5113276;27;20492;-89
2021/01/26 06:19:20;;;;;;;5.80;3.97;;;;;;;-0.36;100.00;151278.56;5080326;28;20927;-89
2021/01/26 06:21:55;;;;;;;7.27;4.40;;;;;;;-0.31;100.00;151291.41;5111457;28;20436;-89
2021/01/26 06:24:33;;;;;;;5.00;3.73;;;;;;;-0.31;100.00;151292.69;5092169;28;20450;-90
2021/01/26 06:27:34;;;;;;;13.43;5.17;;;;;;;-0.27;100.00;151301.69;5082956;28;20879;-89
2021/01/26 06:30:17;;;;;;;8.00;4.40;;;;;;;-0.28;100.00;151300.41;5095846;28;20935;-90
2021/01/26 06:33:31;;;;;;;6.97;4.50;;;;;;;-0.27;100.00;151302.97;5080471;28;20477;-89
2021/01/26 06:36:32;;;;;;;7.27;4.13;;;;;;;-0.28;100.00;151299.09;5042728;28;20464;-89
2021/01/26 06:39:21;;;;;;;7.50;4.80;;;;;;;-0.25;100.00;151306.81;5113358;28;20836;-89
2021/01/26 06:42:08;;;;;;;5.87;4.60;;;;;;;-0.26;100.00;151305.50;5072204;28;20448;-90
2021/01/26 06:45:02;;;;;;;7.10;4.37;;;;;;;-0.23;100.00;151311.94;5095471;28;20484;-89
2021/01/26 06:48:14;;;;;;;4.97;4.00;;;;;;;-0.28;100.00;151300.41;5079713;28;20532;-89
2021/01/26 06:51:09;;;;;;;7.63;4.80;;;;;;;-0.24;100.00;151310.63;5129701;27;20444;-89
2021/01/26 06:54:03;;;;;;;5.43;4.30;;;;;;;-0.23;100.00;151313.22;5109440;28;20444;-89
2021/01/26 06:56:59;;;;;;;6.60;4.40;;;;;;;-0.20;100.00;151319.63;5060748;28;20878;-90
2021/01/26 06:59:51;;;;;;;6.13;4.23;;;;;;;-0.23;100.00;151313.22;5075822;28;20500;-90
2021/01/26 07:02:43;;;;;;;6.93;4.13;;;;;;;-0.21;100.00;151317.03;5118997;27;20438;-89
2021/01/26 07:05:27;;;;;;;6.47;4.27;;;;;;;-0.23;100.00;151313.22;5060547;28;20784;-90
2021/01/26 07:08:24;;;;;;;5.03;4.43;;;;;;;-0.21;100.00;151318.34;5078671;28;21072;-90
2021/01/26 07:11:28;;;;;;;4.23;3.70;;;;;;;-0.23;100.00;151313.22;5078390;28;20446;-89
2021/01/26 07:14:10;;;;;;;4.80;3.30;;;;;;;-0.18;100.00;151324.75;5060146;28;20802;-90
2021/01/26 07:16:49;;;;;;;4.17;3.17;;;;;;;-0.18;100.00;151326.03;5075663;28;20460;-90
2021/01/26 07:19:41;;;;;;;4.77;3.70;;;;;;;-0.16;100.00;151331.16;5093733;28;20445;-90
2021/01/26 07:22:58;;;;;;;4.30;3.33;;;;;;;-0.10;100.00;151346.56;5092354;28;20543;-90
2021/01/26 07:25:44;;;;;;;5.97;3.70;;;;;;;-0.10;100.00;151346.56;5053311;28;20798;-90
2021/01/26 07:29:09;;;;;;;4.43;3.03;;;;;;;-0.10;100.00;151345.28;5116313;27;20533;-91
2021/01/26 07:31:48;;;;;;;4.33;2.83;;;;;;;-0.09;100.00;151349.16;5002242;28;20877;-90
2021/01/26 07:34:29;;;;;;;4.43;3.80;;;;;;;-0.13;100.00;151338.88;5090593;28;20839;-91
2021/01/26 07:37:10;;;;;;;4.00;3.20;;;;;;;-0.08;100.00;151351.69;5093917;28;20461;-89
2021/01/26 07:39:52;;;;;;;6.37;4.30;;;;;;;-0.11;100.00;151342.75;5091624;28;20540;-89
2021/01/26 07:42:31;;;;;;;2.90;2.47;;;;;;;-0.08;100.00;151351.69;5112261;27;20441;-89
2021/01/26 07:45:13;;;;;;;4.43;2.80;;;;;;;-0.08;100.00;151350.44;5090002;28;20433;-88
2021/01/26 07:47:51;;;;;;;5.00;3.27;;;;;;;-0.08;100.00;151351.69;5077922;28;20445;-89
2021/01/26 07:50:30;;;;;;;6.80;3.30;;;;;;;-0.06;100.00;151356.88;5066519;28;20949;-89
2021/01/26 07:53:21;;;;;;;4.30;3.60;;;;;;;-0.08;100.00;151351.69;5083697;28;20450;-88
2021/01/26 07:56:00;;;;;;;5.60;3.43;;;;;;;-0.08;100.00;151351.69;5068501;28;20496;-87
2021/01/26 07:58:36;;;;;;;4.40;3.77;;;;;;;-0.05;100.00;151359.41;5092887;28;20460;-86
2021/01/26 08:01:13;;;;;;;5.43;3.70;;;;;;;-0.05;100.00;151359.41;5093501;28;20444;-87
2021/01/26 08:03:49;;;;;;;5.00;3.97;;;;;;;-0.04;100.00;151361.97;5084012;28;20861;-87
2021/01/26 08:06:46;;;;;;;3.90;3.60;;;;;;;0.00;100.00;151370.97;5066565;28;20445;-86
2021/01/26 08:09:27;;;;;;;4.70;3.33;;;;;;;-0.01;100.00;151369.69;5092111;28;20445;-83
2021/01/26 08:12:05;;;;;;;4.13;3.40;;;;;;;-0.02;100.00;151365.81;5082704;28;20450;-84
2021/01/26 08:14:43;;;;;;;3.90;3.40;;;;;;;0.03;100.00;151377.41;5077857;28;20554;-85
2021/01/26 08:17:29;;;;;;;4.60;3.40;;;;;;;0.11;100.00;151397.94;5080023;28;20448;-84
2021/01/26 08:20:07;;;;;;;5.07;3.43;;;;;;;0.15;100.00;151409.47;5086202;28;20431;-84
2021/01/26 08:22:45;;;;;;;3.63;3.00;;;;;;;0.14;100.00;151405.59;5073553;28;20442;-84
2021/01/26 08:25:27;;;;;;;3.57;2.90;;;;;;;0.21;100.00;151423.59;5064038;28;20461;-84
2021/01/26 08:28:05;;;;;;;4.60;3.03;;;;;;;0.20;100.00;151421.00;5123746;27;20833;-85
2021/01/26 08:31:03;;;;;;;6.13;3.23;;;;;;;0.24;100.00;151431.28;5077757;28;20467;-85
2021/01/26 08:33:38;;;;;;;4.67;2.70;;;;;;;0.27;100.00;151440.25;5075554;28;20475;-84
2021/01/26 08:36:36;;;;;;;4.77;3.17;;;;;;;0.29;100.00;151444.13;5072706;28;20466;-85
2021/01/26 08:39:40;;;;;;;3.70;3.13;;;;;;;0.31;100.00;151450.53;5063831;28;20521;-85
2021/01/26 08:42:53;;;;;;;9.43;3.57;;;;;;;0.33;100.00;151454.38;5031822;28;20539;-83
2021/01/26 08:45:51;;;;;;;5.40;3.63;;;;;;;0.32;100.00;151451.84;5077461;28;20536;-83
2021/01/26 08:48:30;;;;;;;3.47;3.17;;;;;;;0.38;100.00;151467.19;5076867;28;20543;-85
2021/01/26 08:51:11;;;;;;;9.67;4.33;;;;;;;0.34;100.00;151456.97;5061581;28;20441;-88
2021/01/26 08:53:47;;;;;;;7.03;5.00;;;;;;;0.37;100.00;151464.66;5116346;27;20445;-85
2021/01/26 08:56:39;;;;;;;16.20;7.90;;;;;;;0.36;100.00;151462.09;5126637;27;20472;-84
2021/01/26 08:59:29;;;;;;;7.93;5.20;;;;;;;0.29;100.00;151445.38;5078561;28;20528;-85
2021/01/26 09:02:05;;;;;;;7.53;5.73;;;;;;;0.28;100.00;151441.53;5069938;28;20536;-85
2021/01/26 09:04:46;;;;;;;7.53;5.63;;;;;;;0.29;100.00;151445.38;5095143;28;20458;-84
2021/01/26 09:07:54;;;;;;;6.33;5.23;;;;;;;0.33;100.00;151454.38;5101862;28;20453;-85
2021/01/26 09:10:33;;;;;;;8.17;5.03;;;;;;;0.31;100.00;151449.25;5053709;28;20469;-86
2021/01/26 09:13:13;;;;;;;5.60;4.50;;;;;;;0.31;100.00;151449.25;5053244;28;20447;-88
2021/01/26 09:15:52;;;;;;;11.70;5.57;;;;;;;0.31;100.00;151449.25;5058869;28;20473;-86
2021/01/26 09:18:28;;;;;;;5.93;4.63;;;;;;;0.32;100.00;151451.84;5120261;27;20484;-85
2021/01/26 09:21:07;;;;;;;6.27;4.60;;;;;;;0.30;100.00;151446.66;5105986;28;20447;-86
2021/01/26 09:23:43;;;;;;;5.33;4.60;;;;;;;0.30;100.00;151446.66;5084747;28;20446;-85
2021/01/26 09:26:19;;;;;;;4.77;3.87;;;;;;;0.36;100.00;151462.09;5110486;27;20436;-85
2021/01/26 09:28:55;;;;;;;6.93;4.47;;;;;;;0.35;100.00;151459.50;5091987;28;20444;-85
2021/01/26 09:31:31;;;;;;;5.00;4.17;;;;;;;0.37;100.00;151464.66;5093692;28;20446;-85
2021/01/26 09:34:08;;;;;;;4.30;3.67;;;;;;;0.41;100.00;151474.91;5097195;28;20472;-86
2021/01/26 09:36:43;;;;;;;5.70;4.27;;;;;;;0.42;100.00;151477.50;5060345;28;20472;-86
2021/01/26 09:39:19;;;;;;;4.53;3.43;;;;;;;0.46;100.00;151487.75;5086342;28;20454;-86
2021/01/26 09:41:55;;;;;;;5.23;3.80;;;;;;;0.50;100.00;151498.03;5096846;28;20445;-86
2021/01/26 09:44:30;;;;;;;5.20;3.80;;;;;;;0.56;100.00;151513.41;5086919;28;20448;-85
2021/01/26 09:47:09;;;;;;;6.50;4.63;;;;;;;0.58;99.88;151519.81;5076646;28;20426;-84
2021/01/26 09:49:44;;;;;;;4.80;3.90;;;;;;;0.73;100.00;151557.09;5076604;28;20434;-85
2021/01/26 09:52:20;;;;;;;6.00;3.90;;;;;;;0.79;99.54;151572.50;5080317;28;20441;-85
2021/01/26 09:55:03;;;;;;;3.90;3.17;;;;;;;0.80;100.00;151573.75;5057911;28;20484;-84
2021/01/26 09:57:39;;;;;;;6.67;3.17;;;;;;;0.81;98.40;151576.34;5115886;28;20450;-85
2021/01/26 10:00:17;;;;;;;6.30;4.10;;;;;;;0.76;98.89;151564.81;5069147;28;20789;-85
2021/01/26 10:02:54;;;;;;;3.43;3.10;;;;;;;0.75;97.52;151562.22;5075352;28;20480;-84
2021/01/26 10:05:30;;;;;;;3.80;3.50;;;;;;;0.76;96.80;151564.81;5124727;28;20437;-85
2021/01/26 10:08:09;;;;;;;5.23;3.13;;;;;;;0.79;98.93;151571.22;5126136;28;20428;-84
2021/01/26 10:10:46;;;;;;;4.80;2.90;;;;;;;0.76;100.00;151563.50;5084320;28;20438;-84
2021/01/26 10:13:31;;;;;;;4.43;3.10;;;;;;;0.75;99.35;151562.22;5084232;28;20451;-85
2021/01/26 10:16:30;;;;;;;4.43;3.30;;;;;;;0.76;100.00;151564.81;5094447;28;20474;-85
2021/01/26 10:19:12;;;;;;;3.50;3.00;;;;;;;0.80;99.62;151575.03;5081012;28;20846;-85
2021/01/26 10:21:48;;;;;;;3.90;3.53;;;;;;;0.87;99.33;151593.06;5082336;28;20441;-85
2021/01/26 10:24:27;;;;;;;5.03;3.20;;;;;;;0.89;98.57;151598.19;5107324;28;20535;-85
2021/01/26 10:27:07;;;;;;;5.23;2.83;;;;;;;0.92;98.11;151605.91;5075971;28;20435;-85
2021/01/26 10:29:44;;;;;;;3.90;3.00;;;;;;;0.97;96.47;151617.44;5089391;28;20453;-85
2021/01/26 10:32:41;;;;;;;3.00;2.70;;;;;;;1.08;97.49;151645.69;5100519;28;20467;-85
2021/01/26 10:35:31;;;;;;;3.93;3.03;;;;;;;1.19;97.23;151675.22;5080748;28;20979;-86
2021/01/26 10:38:25;;;;;;;3.53;3.23;;;;;;;1.30;96.73;151700.94;5075937;28;20434;-86
2021/01/26 10:41:06;;;;;;;3.70;2.50;;;;;;;1.30;94.99;151702.19;5067345;28;20439;-86
2021/01/26 10:43:41;;;;;;;4.67;2.37;;;;;;;1.28;95.48;151695.78;5089872;28;20449;-86
2021/01/26 10:46:30;;;;;;;3.20;2.90;;;;;;;1.19;93.92;151675.22;5074780;28;20435;-86
2021/01/26 10:49:11;;;;;;;3.97;2.73;;;;;;;1.19;94.59;151675.22;5062403;28;20983;-86
2021/01/26 10:51:48;;;;;;;4.93;2.73;;;;;;;1.17;94.72;151670.09;5074546;28;20437;-86
2021/01/26 10:54:23;;;;;;;4.20;2.70;;;;;;;1.19;94.27;151675.22;5075810;28;20441;-86
2021/01/26 10:56:59;;;;;;;7.83;2.63;;;;;;;1.16;91.93;151666.25;5073387;28;20496;-86
2021/01/26 10:59:35;;;;;;;4.10;2.70;;;;;;;1.21;91.91;151680.41;5094037;28;20456;-87
2021/01/26 11:02:12;;;;;;;3.13;2.57;;;;;;;1.18;94.08;151671.38;5079173;28;20991;-87
2021/01/26 11:04:47;;;;;;;5.20;2.97;;;;;;;1.13;95.25;151658.53;5095116;28;20443;-87
2021/01/26 11:07:23;;;;;;;2.67;2.43;;;;;;;1.08;96.78;151647.00;5094730;28;20429;-87
2021/01/26 11:09:59;;;;;;;4.37;2.90;;;;;;;1.05;95.53;151639.28;5074863;28;21013;-87
2021/01/26 11:12:35;;;;;;;3.53;2.30;;;;;;;1.06;96.84;151640.56;5119847;27;20437;-86
2021/01/26 11:15:13;;;;;;;5.30;2.70;;;;;;;1.05;92.24;151638.00;5099474;28;20452;-85
2021/01/26 11:17:49;;;;;;;6.20;3.40;;;;;;;1.10;97.12;151650.84;5084329;28;20481;-86
2021/01/26 11:20:24;;;;;;;4.40;2.97;;;;;;;1.04;94.54;151636.69;5059150;28;20440;-86
2021/01/26 11:23:00;;;;;;;2.63;2.30;;;;;;;1.00;96.93;151626.44;5087604;28;20448;-87
2021/01/26 11:25:36;;;;;;;2.67;2.33;;;;;;;0.95;94.79;151613.59;5128428;27;20438;-86
2021/01/26 11:28:12;;;;;;;3.03;2.40;;;;;;;0.98;96.11;151621.28;5121572;27;20930;-86
2021/01/26 11:30:47;;;;;;;4.93;2.50;;;;;;;0.97;94.08;151618.72;5107862;28;20438;-87
2021/01/26 11:33:23;;;;;;;4.07;2.97;;;;;;;0.96;92.91;151614.84;5125367;27;20479;-86
2021/01/26 11:35:59;;;;;;;3.77;2.60;;;;;;;1.02;91.74;151631.56;5078534;28;21267;-86
2021/01/26 11:38:36;;;;;;;5.60;2.70;;;;;;;1.07;94.06;151644.41;5098993;28;20822;-86
2021/01/26 11:41:11;;;;;;;3.10;2.80;;;;;;;1.09;96.42;151648.25;5090721;28;20851;-86
2021/01/26 11:43:47;;;;;;;4.17;2.77;;;;;;;1.13;92.55;151659.84;5093284;28;20431;-86
2021/01/26 11:46:22;;;;;;;2.53;2.33;;;;;;;1.16;93.90;151667.56;5111050;27;20453;-86
2021/01/26 11:48:58;;;;;;;2.97;2.20;;;;;;;1.26;93.60;151691.94;5078360;28;20455;-86
2021/01/26 11:51:33;;;;;;;3.20;2.23;;;;;;;1.24;93.84;151686.81;5092222;28;20532;-85
2021/01/26 11:54:18;;;;;;;2.50;1.90;;;;;;;1.31;91.73;151703.50;5066964;28;20557;-85
2021/01/26 11:56:54;;;;;;;4.27;2.00;;;;;;;1.33;91.31;151708.63;5081363;28;20553;-86
2021/01/26 11:59:30;;;;;;;2.87;2.10;;;;;;;1.37;90.20;151718.91;5078804;28;20439;-85
2021/01/26 12:02:05;;;;;;;5.43;1.90;;;;;;;1.35;92.06;151713.78;5085104;28;20523;-85
2021/01/26 12:04:40;;;;;;;2.23;1.97;;;;;;;1.40;92.31;151726.63;5095596;28;20447;-86
2021/01/26 12:07:15;;;;;;;3.17;1.97;;;;;;;1.35;91.50;151715.03;5127393;27;20585;-84
2021/01/26 12:09:51;;;;;;;5.83;2.47;;;;;;;1.37;90.06;151718.91;5093284;28;20451;-85
2021/01/26 12:12:27;;;;;;;3.77;2.37;;;;;;;1.39;91.31;151725.34;5087224;28;20939;-86
2021/01/26 12:15:03;;;;;;;4.60;2.83;;;;;;;1.45;91.24;151739.47;5087619;28;20845;-85
2021/01/26 12:17:38;;;;;;;4.40;2.47;;;;;;;1.49;90.91;151749.72;5111602;27;20810;-85
2021/01/26 12:20:14;;;;;;;4.20;2.47;;;;;;;1.60;88.11;151778.00;5072345;28;20815;-85
2021/01/26 12:22:49;;;;;;;3.80;2.40;;;;;;;1.59;90.84;151775.47;5113302;27;20929;-85
2021/01/26 12:25:27;;;;;;;3.00;2.17;;;;;;;1.63;91.22;151785.72;5107395;28;20456;-85
2021/01/26 12:28:02;;;;;;;3.77;2.27;;;;;;;1.66;89.94;151793.44;5121909;27;20427;-85